sensor_id;sensor_type;location;lat;lon;timestamp;P1;durP1;ratioP1;P2;durP2;ratioP2
76814;SDS011;65768;49.906;19.384;2024-01-06T20:58:56;35.50;;;16.60;;
76814;SDS011;65768;49.906;19.384;2024-01-06T21:01:24;39.00;;;18.00;;
76814;SDS011;65768;49.906;19.384;2024-01-06T21:03:51;40.90;;;20.00;;
76814;SDS011;65768;49.906;19.384;2024-01-06T21:06:20;28.20;;;15.40;;
76814;SDS011;65768;49.906;19.384;2024-01-06T21:08:48;20.10;;;10.60;;
76814;SDS011;65768;49.906;19.384;2024-01-06T21:11:15;20.60;;;10.90;;
76814;SDS011;65768;49.906;19.384;2024-01-06T21:16:10;17.40;;;9.00;;
76814;SDS011;65768;49.906;19.384;2024-01-06T21:18:37;14.00;;;7.20;;
76814;SDS011;65768;49.906;19.384;2024-01-06T21:21:04;17.80;;;9.10;;
76814;SDS011;65768;49.906;19.384;2024-01-06T21:23:31;15.10;;;8.20;;
76814;SDS011;65768;49.906;19.384;2024-01-06T21:25:59;12.60;;;7.20;;
76814;SDS011;65768;49.906;19.384;2024-01-06T21:28:28;11.40;;;6.70;;
76814;SDS011;65768;49.906;19.384;2024-01-06T21:30:55;12.30;;;7.40;;
76814;SDS011;65768;49.906;19.384;2024-01-06T21:33:23;12.80;;;7.80;;
76814;SDS011;65768;49.906;19.384;2024-01-06T21:35:50;10.80;;;6.90;;
76814;SDS011;65768;49.906;19.384;2024-01-06T21:38:18;11.70;;;7.80;;
76814;SDS011;65768;49.906;19.384;2024-01-06T21:40:45;14.60;;;7.70;;
76814;SDS011;65768;49.906;19.384;2024-01-06T21:43:13;13.10;;;7.30;;
76814;SDS011;65768;49.906;19.384;2024-01-06T21:45:40;13.40;;;7.60;;
76814;SDS011;65768;49.906;19.384;2024-01-06T21:48:08;11.80;;;6.50;;
76814;SDS011;65768;49.906;19.384;2024-01-06T21:50:35;11.30;;;6.20;;
76814;SDS011;65768;49.906;19.384;2024-01-06T21:53:03;8.90;;;5.40;;
76814;SDS011;65768;49.906;19.384;2024-01-06T21:55:31;11.40;;;7.00;;
76814;SDS011;65768;49.906;19.384;2024-01-06T22:00:28;11.30;;;5.80;;
76814;SDS011;65768;49.906;19.384;2024-01-06T22:02:55;12.20;;;5.80;;
76814;SDS011;65768;49.906;19.384;2024-01-06T22:05:22;16.60;;;8.10;;
76814;SDS011;65768;49.906;19.384;2024-01-06T22:07:49;13.80;;;7.30;;
76814;SDS011;65768;49.906;19.384;2024-01-06T22:10:17;12.80;;;5.10;;
76814;SDS011;65768;49.906;19.384;2024-01-06T22:12:44;14.60;;;7.40;;
76814;SDS011;65768;49.906;19.384;2024-01-06T22:15:13;8.90;;;5.60;;
76814;SDS011;65768;49.906;19.384;2024-01-06T22:17:42;12.20;;;4.80;;
76814;SDS011;65768;49.906;19.384;2024-01-06T22:20:09;8.00;;;5.00;;
76814;SDS011;65768;49.906;19.384;2024-01-06T22:22:37;10.50;;;5.40;;
76814;SDS011;65768;49.906;19.384;2024-01-06T22:25:05;10.00;;;5.60;;
76814;SDS011;65768;49.906;19.384;2024-01-06T22:27:34;8.50;;;5.00;;
76814;SDS011;65768;49.906;19.384;2024-01-06T22:30:02;12.70;;;6.10;;
76814;SDS011;65768;49.906;19.384;2024-01-06T22:32:31;8.90;;;4.40;;
76814;SDS011;65768;49.906;19.384;2024-01-06T22:34:59;11.00;;;6.90;;
76814;SDS011;65768;49.906;19.384;2024-01-06T22:37:26;8.00;;;4.60;;
76814;SDS011;65768;49.906;19.384;2024-01-06T22:39:53;9.20;;;4.40;;
76814;SDS011;65768;49.906;19.384;2024-01-06T22:42:21;11.50;;;6.00;;
76814;SDS011;65768;49.906;19.384;2024-01-06T22:44:48;12.70;;;7.00;;
76814;SDS011;65768;49.906;19.384;2024-01-06T22:47:15;13.40;;;6.90;;
76814;SDS011;65768;49.906;19.384;2024-01-06T22:49:43;9.50;;;5.20;;
76814;SDS011;65768;49.906;19.384;2024-01-06T22:52:10;9.30;;;5.90;;
76814;SDS011;65768;49.906;19.384;2024-01-06T22:54:40;8.30;;;5.80;;
76814;SDS011;65768;49.906;19.384;2024-01-06T22:57:09;8.30;;;4.60;;
76814;SDS011;65768;49.906;19.384;2024-01-06T22:59:37;10.20;;;5.30;;
76814;SDS011;65768;49.906;19.384;2024-01-06T23:02:04;10.40;;;5.80;;
76814;SDS011;65768;49.906;19.384;2024-01-06T23:04:31;10.10;;;5.80;;
76814;SDS011;65768;49.906;19.384;2024-01-06T23:09:26;11.80;;;5.90;;
76814;SDS011;65768;49.906;19.384;2024-01-06T23:11:53;7.10;;;5.10;;
76814;SDS011;65768;49.906;19.384;2024-01-06T23:14:20;6.50;;;4.90;;
76814;SDS011;65768;49.906;19.384;2024-01-06T23:16:48;11.50;;;6.10;;
76814;SDS011;65768;49.906;19.384;2024-01-06T23:21:43;10.20;;;5.10;;
76814;SDS011;65768;49.906;19.384;2024-01-06T23:24:10;11.30;;;5.20;;
76814;SDS011;65768;49.906;19.384;2024-01-06T23:26:37;10.00;;;5.70;;
76814;SDS011;65768;49.906;19.384;2024-01-06T23:29:05;9.20;;;5.10;;
76814;SDS011;65768;49.906;19.384;2024-01-06T23:31:32;10.80;;;5.40;;
76814;SDS011;65768;49.906;19.384;2024-01-06T23:34:00;8.60;;;5.50;;
76814;SDS011;65768;49.906;19.384;2024-01-06T23:36:27;11.50;;;6.20;;
76814;SDS011;65768;49.906;19.384;2024-01-06T23:38:54;14.00;;;6.90;;
76814;SDS011;65768;49.906;19.384;2024-01-06T23:41:21;10.30;;;5.60;;
76814;SDS011;65768;49.906;19.384;2024-01-06T23:43:49;12.20;;;6.30;;
76814;SDS011;65768;49.906;19.384;2024-01-06T23:46:16;12.20;;;5.60;;
76814;SDS011;65768;49.906;19.384;2024-01-06T23:48:44;12.40;;;7.00;;
76814;SDS011;65768;49.906;19.384;2024-01-06T23:51:14;11.80;;;7.20;;
76814;SDS011;65768;49.906;19.384;2024-01-06T23:53:43;10.60;;;6.00;;
76814;SDS011;65768;49.906;19.384;2024-01-06T23:56:11;10.00;;;6.30;;
76814;SDS011;65768;49.906;19.384;2024-01-06T23:58:38;9.70;;;5.10;;
